Time;durP1;ratioP1;P1;durP2;ratioP2;P2;SDS_P1;SDS_P2;PMS_P1;PMS_P2;Temp;Humidity;BMP_temperature;BMP_pressure;BME280_temperature;BME280_humidity;BME280_pressure;Samples;Min_cycle;Max_cycle;Signal;HPM_P1;HPM_P2
2024/01/14 00:00:33;;;;;;;24.00;11.90;;;;;2.90;100874.00;;;;4860722;29;20241;-69
2024/01/14 00:03:20;;;;;;;20.87;11.13;;;;;2.90;100878.00;;;;4846521;29;20311;-70
2024/01/14 00:06:06;;;;;;;22.67;9.60;;;;;2.90;100872.00;;;;4855286;29;20299;-68
2024/01/14 00:08:52;;;;;;;31.40;11.63;;;;;2.90;100869.00;;;;4857357;29;20238;-66
2024/01/14 00:11:40;;;;;;;23.17;11.03;;;;;2.90;100859.00;;;;4867894;29;20240;-67
2024/01/14 00:14:27;;;;;;;22.17;10.30;;;;;2.90;100857.00;;;;4862753;29;20235;-69
2024/01/14 00:17:14;;;;;;;22.63;10.00;;;;;2.90;100870.00;;;;4862411;29;20238;-70
2024/01/14 00:20:00;;;;;;;23.50;8.67;;;;;2.90;100862.00;;;;4858832;29;20246;-67
2024/01/14 00:22:47;;;;;;;16.40;8.70;;;;;2.90;100877.00;;;;4860403;29;20242;-69
2024/01/14 00:25:33;;;;;;;18.47;8.23;;;;;2.80;100871.00;;;;4847235;29;20242;-69
2024/01/14 00:28:21;;;;;;;18.20;6.47;;;;;2.80;100871.00;;;;4849789;29;20234;-70
2024/01/14 00:31:07;;;;;;;20.97;9.40;;;;;2.80;100871.00;;;;4857340;29;20307;-69
2024/01/14 00:33:54;;;;;;;16.87;9.53;;;;;2.70;100863.00;;;;4849255;29;20242;-70
2024/01/14 00:36:40;;;;;;;24.93;9.20;;;;;2.80;100866.00;;;;4862068;29;20228;-70
2024/01/14 00:39:27;;;;;;;18.47;9.33;;;;;2.70;100862.00;;;;4847547;29;20282;-69
2024/01/14 00:42:13;;;;;;;23.47;9.47;;;;;2.70;100853.00;;;;4857600;29;20243;-69
2024/01/14 00:45:01;;;;;;;17.80;7.33;;;;;2.70;100844.00;;;;4858877;29;20243;-67
2024/01/14 00:47:48;;;;;;;22.90;9.93;;;;;2.70;100837.00;;;;4851658;29;20239;-70
2024/01/14 00:50:34;;;;;;;19.23;10.27;;;;;2.70;100855.00;;;;4858154;29;20249;-70
2024/01/14 00:53:21;;;;;;;16.90;8.93;;;;;2.70;100850.00;;;;4857241;29;20699;-70
2024/01/14 00:56:07;;;;;;;17.73;7.63;;;;;2.70;100846.00;;;;4862377;29;20328;-69
2024/01/14 00:58:54;;;;;;;18.80;9.37;;;;;2.70;100831.00;;;;4864117;29;20234;-69
2024/01/14 01:01:41;;;;;;;16.87;7.33;;;;;2.70;100839.00;;;;4858168;29;20304;-70
2024/01/14 01:04:28;;;;;;;16.20;6.73;;;;;2.70;100822.00;;;;4861738;29;20331;-69
2024/01/14 01:07:14;;;;;;;20.63;7.70;;;;;2.70;100825.00;;;;4867335;29;20247;-70
2024/01/14 01:10:01;;;;;;;20.53;7.67;;;;;2.70;100822.00;;;;4867325;29;20234;-70
2024/01/14 01:12:47;;;;;;;15.43;8.37;;;;;2.70;100816.00;;;;4859600;29;20258;-69
2024/01/14 01:15:33;;;;;;;18.77;8.50;;;;;2.70;100814.00;;;;4859152;29;20243;-67
2024/01/14 01:18:21;;;;;;;17.47;7.57;;;;;2.70;100815.00;;;;4857084;29;20900;-69
2024/01/14 01:21:08;;;;;;;24.70;10.20;;;;;2.70;100813.00;;;;4863604;29;20253;-70
2024/01/14 01:23:54;;;;;;;21.03;9.07;;;;;2.80;100807.00;;;;4861211;29;20239;-69
2024/01/14 01:26:40;;;;;;;21.50;10.97;;;;;2.80;100800.00;;;;4871558;29;20303;-68
2024/01/14 01:29:27;;;;;;;20.03;9.90;;;;;2.80;100793.00;;;;4854814;29;20238;-70
2024/01/14 01:32:13;;;;;;;15.10;7.10;;;;;2.80;100792.00;;;;4866642;29;20661;-69
2024/01/14 01:35:01;;;;;;;21.30;9.10;;;;;2.80;100786.00;;;;4862378;29;20239;-69
2024/01/14 01:37:48;;;;;;;27.60;11.40;;;;;2.70;100790.00;;;;4865289;29;20368;-70
2024/01/14 01:40:34;;;;;;;18.07;8.70;;;;;2.70;100779.00;;;;4856551;29;20230;-70
2024/01/14 01:43:21;;;;;;;19.33;9.93;;;;;2.70;100784.00;;;;4862450;29;20297;-70
2024/01/14 01:46:08;;;;;;;20.97;10.57;;;;;2.80;100783.00;;;;4855854;29;20242;-70
2024/01/14 01:48:54;;;;;;;23.63;9.17;;;;;2.90;100784.00;;;;4859573;29;20243;-71
2024/01/14 01:51:45;;;;;;;17.37;8.77;;;;;2.80;100777.00;;;;4854267;29;20248;-70
2024/01/14 01:54:33;;;;;;;26.67;10.73;;;;;2.80;100772.00;;;;4857904;29;20242;-70
2024/01/14 01:57:21;;;;;;;24.70;12.20;;;;;2.80;100765.00;;;;4858772;29;20227;-71
2024/01/14 02:00:09;;;;;;;21.90;9.73;;;;;2.80;100769.00;;;;4855572;29;20227;-69
2024/01/14 02:02:55;;;;;;;20.67;8.80;;;;;2.80;100764.00;;;;4862718;29;20311;-70
2024/01/14 02:05:44;;;;;;;20.67;9.10;;;;;2.80;100770.00;;;;4834448;29;20365;-70
2024/01/14 02:08:32;;;;;;;15.70;9.53;;;;;2.80;100761.00;;;;4861897;29;20806;-69
2024/01/14 02:11:19;;;;;;;25.37;9.60;;;;;2.80;100760.00;;;;4868149;29;20235;-67
2024/01/14 02:14:06;;;;;;;24.47;10.60;;;;;2.80;100761.00;;;;4861949;29;20615;-69
2024/01/14 02:16:53;;;;;;;24.73;10.27;;;;;2.80;100756.00;;;;4862978;29;20235;-69
2024/01/14 02:19:39;;;;;;;20.80;9.43;;;;;2.80;100758.00;;;;4854388;29;20375;-70
2024/01/14 02:22:30;;;;;;;21.67;9.20;;;;;2.80;100757.00;;;;4850747;29;20320;-69
2024/01/14 02:25:18;;;;;;;28.03;8.90;;;;;2.80;100754.00;;;;4864636;29;20888;-68
2024/01/14 02:28:05;;;;;;;22.93;9.27;;;;;2.80;100749.00;;;;4861850;29;20301;-69
2024/01/14 02:30:54;;;;;;;20.67;9.57;;;;;2.80;100758.00;;;;4865990;29;20293;-69
2024/01/14 02:33:40;;;;;;;18.77;9.30;;;;;2.80;100751.00;;;;4861636;29;20769;-69
2024/01/14 02:36:27;;;;;;;31.73;10.57;;;;;2.70;100752.00;;;;4858882;29;20438;-69
2024/01/14 02:39:16;;;;;;;27.37;9.67;;;;;2.70;100743.00;;;;4859823;29;20243;-69
2024/01/14 02:42:04;;;;;;;20.40;9.70;;;;;2.70;100744.00;;;;4863470;29;20626;-69
2024/01/14 02:44:51;;;;;;;16.60;8.90;;;;;2.70;100730.00;;;;4851167;29;20249;-70
2024/01/14 02:47:38;;;;;;;12.23;7.00;;;;;2.70;100733.00;;;;4860860;29;20356;-66
2024/01/14 02:50:24;;;;;;;18.50;8.10;;;;;2.70;100727.00;;;;4863487;29;20784;-70
2024/01/14 02:53:10;;;;;;;17.90;7.77;;;;;2.70;100720.00;;;;4862691;29;20292;-70
2024/01/14 02:55:56;;;;;;;12.50;7.53;;;;;2.60;100719.00;;;;4856857;29;20686;-70
2024/01/14 02:58:44;;;;;;;19.83;10.03;;;;;2.70;100725.00;;;;4853133;29;20243;-69
2024/01/14 03:01:30;;;;;;;18.10;8.70;;;;;2.70;100716.00;;;;4862541;29;20306;-70
2024/01/14 03:04:17;;;;;;;13.33;7.07;;;;;2.60;100724.00;;;;4852794;29;20245;-69
2024/01/14 03:07:03;;;;;;;16.17;7.13;;;;;2.70;100716.00;;;;4860764;29;20740;-70
2024/01/14 03:09:49;;;;;;;15.13;8.57;;;;;2.70;100709.00;;;;4859198;29;20246;-70
2024/01/14 03:12:36;;;;;;;17.17;9.60;;;;;2.70;100718.00;;;;4862758;29;20854;-70
2024/01/14 03:15:23;;;;;;;19.67;7.70;;;;;2.70;100717.00;;;;4864729;29;20239;-69
2024/01/14 03:18:10;;;;;;;19.80;8.67;;;;;2.70;100707.00;;;;4868165;29;20317;-70
2024/01/14 03:20:57;;;;;;;20.70;9.10;;;;;2.70;100703.00;;;;4860081;29;20243;-70
2024/01/14 03:23:43;;;;;;;21.73;8.47;;;;;2.70;100689.00;;;;4848489;29;20235;-70
2024/01/14 03:26:29;;;;;;;19.03;9.27;;;;;2.70;100690.00;;;;4851558;29;20607;-70
2024/01/14 03:29:16;;;;;;;21.87;9.80;;;;;2.70;100689.00;;;;4864437;29;20242;-69
2024/01/14 03:32:03;;;;;;;16.37;7.67;;;;;2.60;100690.00;;;;4864157;29;20239;-69
2024/01/14 03:34:49;;;;;;;15.03;7.77;;;;;2.70;100691.00;;;;4868736;29;20634;-70
2024/01/14 03:37:36;;;;;;;15.23;6.80;;;;;2.70;100682.00;;;;4853614;29;20936;-70
2024/01/14 03:40:22;;;;;;;18.47;8.40;;;;;2.70;100684.00;;;;4866652;29;20283;-69
2024/01/14 03:43:08;;;;;;;18.60;9.03;;;;;2.70;100679.00;;;;4859770;29;20228;-67
2024/01/14 03:45:54;;;;;;;20.03;9.20;;;;;2.70;100667.00;;;;4857169;29;20722;-69
2024/01/14 03:48:42;;;;;;;19.63;9.47;;;;;2.70;100671.00;;;;4859766;29;20310;-69
2024/01/14 03:51:29;;;;;;;23.33;8.80;;;;;2.70;100669.00;;;;4851807;29;20292;-69
2024/01/14 03:54:16;;;;;;;30.17;10.77;;;;;2.70;100672.00;;;;4861331;29;20283;-70
2024/01/14 03:57:02;;;;;;;23.77;7.70;;;;;2.70;100665.00;;;;4857244;29;20244;-69
2024/01/14 03:59:48;;;;;;;16.63;8.93;;;;;2.70;100664.00;;;;4856159;29;20353;-69
2024/01/14 04:02:35;;;;;;;16.73;8.13;;;;;2.70;100645.00;;;;4858265;29;20376;-69
2024/01/14 04:05:22;;;;;;;30.70;11.17;;;;;2.70;100656.00;;;;4870038;29;20341;-69
2024/01/14 04:08:09;;;;;;;20.47;9.47;;;;;2.70;100663.00;;;;4858921;29;20239;-68
2024/01/14 04:10:55;;;;;;;20.93;9.80;;;;;2.70;100665.00;;;;4856774;29;20246;-69
2024/01/14 04:13:42;;;;;;;24.43;9.00;;;;;2.70;100655.00;;;;4865368;29;20242;-68
2024/01/14 04:16:36;;;;;;;19.40;9.13;;;;;2.70;100650.00;;;;4867593;29;20733;-70
2024/01/14 04:19:23;;;;;;;21.53;8.70;;;;;2.70;100649.00;;;;4863312;29;20615;-69
2024/01/14 04:22:11;;;;;;;19.40;9.63;;;;;2.80;100656.00;;;;4865291;29;20242;-69
2024/01/14 04:24:57;;;;;;;21.50;9.57;;;;;2.70;100658.00;;;;4857492;29;20241;-70
2024/01/14 04:27:43;;;;;;;25.23;9.70;;;;;2.80;100648.00;;;;4849515;29;20291;-70
2024/01/14 04:30:29;;;;;;;17.50;7.93;;;;;2.80;100639.00;;;;4866484;29;20236;-69
2024/01/14 04:33:16;;;;;;;22.07;9.13;;;;;2.80;100643.00;;;;4860558;29;20237;-69
2024/01/14 04:36:02;;;;;;;20.70;8.53;;;;;2.80;100636.00;;;;4860302;29;20254;-67
2024/01/14 04:38:50;;;;;;;21.07;7.47;;;;;2.80;100640.00;;;;4863016;29;20245;-70
2024/01/14 04:41:37;;;;;;;12.77;7.47;;;;;2.80;100636.00;;;;4860612;29;20301;-68
2024/01/14 04:44:23;;;;;;;20.50;9.73;;;;;2.90;100635.00;;;;4862207;29;20230;-69
2024/01/14 04:47:10;;;;;;;13.97;7.27;;;;;2.80;100626.00;;;;4865876;29;20238;-70
2024/01/14 04:49:56;;;;;;;21.50;9.57;;;;;2.80;100613.00;;;;4859448;29;20749;-70
2024/01/14 04:52:42;;;;;;;15.53;8.03;;;;;2.80;100624.00;;;;4856186;29;20247;-70
2024/01/14 04:55:30;;;;;;;17.23;8.50;;;;;2.80;100625.00;;;;4856856;29;22179;-69
2024/01/14 04:58:16;;;;;;;18.00;7.80;;;;;2.80;100616.00;;;;4859328;29;20231;-69
2024/01/14 05:01:03;;;;;;;20.20;10.30;;;;;2.80;100618.00;;;;4858710;29;20335;-70
2024/01/14 05:03:49;;;;;;;21.67;10.07;;;;;2.80;100624.00;;;;4855787;29;20247;-70
2024/01/14 05:06:35;;;;;;;26.07;8.87;;;;;2.90;100617.00;;;;4852819;29;20731;-69
2024/01/14 05:09:22;;;;;;;24.43;9.93;;;;;2.80;100614.00;;;;4862978;29;20239;-69
2024/01/14 05:12:10;;;;;;;19.53;8.87;;;;;2.80;100614.00;;;;4860240;29;20235;-68
2024/01/14 05:14:56;;;;;;;22.50;9.90;;;;;2.80;100610.00;;;;4862639;29;20258;-69
2024/01/14 05:17:43;;;;;;;16.37;7.60;;;;;2.80;100605.00;;;;4859319;29;20329;-70
2024/01/14 05:20:29;;;;;;;22.90;8.73;;;;;2.80;100620.00;;;;4865114;29;20230;-70
2024/01/14 05:23:15;;;;;;;19.10;9.83;;;;;2.80;100604.00;;;;4861672;29;20878;-69
2024/01/14 05:26:03;;;;;;;19.27;8.30;;;;;2.80;100611.00;;;;4860282;29;20628;-67
2024/01/14 05:28:51;;;;;;;19.53;10.27;;;;;2.80;100597.00;;;;4860822;29;20267;-69
2024/01/14 05:31:37;;;;;;;31.33;11.10;;;;;2.80;100605.00;;;;4854163;29;20235;-69
2024/01/14 05:34:24;;;;;;;22.80;9.20;;;;;2.80;100602.00;;;;4853430;29;20230;-70
2024/01/14 05:37:11;;;;;;;24.00;10.17;;;;;2.80;100596.00;;;;4864126;29;20254;-70
2024/01/14 05:39:57;;;;;;;19.87;10.43;;;;;2.70;100605.00;;;;4868054;29;20295;-69
2024/01/14 05:42:44;;;;;;;26.70;10.73;;;;;2.70;100604.00;;;;4859416;29;20242;-70
2024/01/14 05:45:32;;;;;;;28.80;10.33;;;;;2.80;100596.00;;;;4855155;29;20232;-70
2024/01/14 05:48:19;;;;;;;24.70;11.00;;;;;2.70;100599.00;;;;4865574;29;20235;-69
2024/01/14 05:51:09;;;;;;;19.03;9.53;;;;;2.70;100599.00;;;;4861705;29;20331;-70
2024/01/14 05:53:56;;;;;;;18.53;9.43;;;;;2.80;100580.00;;;;4858867;29;20247;-69
2024/01/14 05:56:43;;;;;;;22.47;11.47;;;;;2.80;100587.00;;;;4858593;29;20242;-71
2024/01/14 05:59:30;;;;;;;24.43;10.73;;;;;2.70;100590.00;;;;4863895;29;20295;-69
2024/01/14 06:02:18;;;;;;;19.57;9.37;;;;;2.80;100591.00;;;;4866555;29;20366;-69
2024/01/14 06:05:05;;;;;;;19.37;10.60;;;;;2.70;100569.00;;;;4870174;29;20252;-69
2024/01/14 06:07:51;;;;;;;29.20;10.47;;;;;2.70;100575.00;;;;4858692;29;20259;-66
2024/01/14 06:10:38;;;;;;;15.97;9.13;;;;;2.70;100575.00;;;;4853560;29;20235;-69
2024/01/14 06:13:25;;;;;;;22.80;9.33;;;;;2.60;100564.00;;;;4862649;29;20300;-71
2024/01/14 06:16:12;;;;;;;31.17;11.17;;;;;2.60;100574.00;;;;4858658;29;20247;-69
2024/01/14 06:18:59;;;;;;;25.93;10.70;;;;;2.60;100577.00;;;;4863289;29;20298;-69
2024/01/14 06:21:46;;;;;;;23.47;8.67;;;;;2.60;100560.00;;;;4864243;29;20242;-69
2024/01/14 06:24:33;;;;;;;19.83;9.83;;;;;2.60;100568.00;;;;4862725;29;20238;-69
2024/01/14 06:27:19;;;;;;;28.30;9.67;;;;;2.60;100557.00;;;;4869410;29;20358;-69
2024/01/14 06:30:07;;;;;;;18.70;10.33;;;;;2.60;100558.00;;;;4868606;29;20256;-66
2024/01/14 06:32:55;;;;;;;25.87;10.77;;;;;2.50;100552.00;;;;4857490;29;20312;-69
2024/01/14 06:35:43;;;;;;;22.07;10.63;;;;;2.60;100550.00;;;;4841331;29;20291;-69
2024/01/14 06:38:29;;;;;;;21.83;10.13;;;;;2.50;100545.00;;;;4871890;29;20226;-69
2024/01/14 06:41:19;;;;;;;22.47;10.07;;;;;2.50;100544.00;;;;4861815;29;20283;-70
2024/01/14 06:44:05;;;;;;;19.80;9.23;;;;;2.50;100539.00;;;;4859854;29;20362;-70
2024/01/14 06:46:52;;;;;;;20.03;9.10;;;;;2.60;100543.00;;;;4861139;29;20881;-70
2024/01/14 06:49:38;;;;;;;25.33;10.70;;;;;2.60;100544.00;;;;4863227;29;20313;-70
2024/01/14 06:52:25;;;;;;;21.03;9.53;;;;;2.60;100552.00;;;;4861524;29;20347;-69
2024/01/14 06:55:13;;;;;;;26.50;9.60;;;;;2.60;100545.00;;;;4864451;29;20239;-69
2024/01/14 06:58:00;;;;;;;26.47;10.53;;;;;2.60;100543.00;;;;4857516;29;20296;-66
2024/01/14 07:00:46;;;;;;;21.00;9.87;;;;;2.60;100534.00;;;;4850785;29;20242;-69
2024/01/14 07:03:33;;;;;;;25.50;10.47;;;;;2.60;100533.00;;;;4850937;29;20306;-70
2024/01/14 07:06:19;;;;;;;28.17;11.53;;;;;2.60;100532.00;;;;4854898;29;20234;-69
2024/01/14 07:09:08;;;;;;;26.20;10.17;;;;;2.60;100519.00;;;;4865074;29;20246;-70
2024/01/14 07:11:54;;;;;;;30.67;11.37;;;;;2.70;100533.00;;;;4860821;29;20716;-68
2024/01/14 07:14:41;;;;;;;21.80;9.63;;;;;2.50;100532.00;;;;4855888;29;20241;-69
2024/01/14 07:17:27;;;;;;;24.70;9.03;;;;;2.60;100527.00;;;;4862012;29;20270;-71
2024/01/14 07:20:34;;;;;;;25.83;11.73;;;;;2.60;100523.00;;;;4864918;29;20282;-70
2024/01/14 07:23:20;;;;;;;25.13;9.33;;;;;2.60;100516.00;;;;4848405;29;20411;-69
2024/01/14 07:26:27;;;;;;;22.73;9.90;;;;;2.60;100522.00;;;;4863077;29;20247;-69
2024/01/14 07:29:14;;;;;;;22.63;9.57;;;;;2.70;100534.00;;;;4857766;29;20625;-71
2024/01/14 07:32:00;;;;;;;27.60;10.33;;;;;2.60;100525.00;;;;4859392;29;20249;-72
2024/01/14 07:34:50;;;;;;;16.93;9.33;;;;;2.70;100530.00;;;;4860197;29;20236;-72
2024/01/14 07:37:36;;;;;;;22.53;9.27;;;;;2.70;100525.00;;;;4850147;29;20607;-72
2024/01/14 07:40:23;;;;;;;24.67;12.00;;;;;2.70;100529.00;;;;4867345;29;20227;-70
2024/01/14 07:43:10;;;;;;;30.03;9.43;;;;;2.70;100537.00;;;;4861970;29;20242;-71
2024/01/14 07:45:57;;;;;;;26.23;10.53;;;;;2.70;100534.00;;;;4860126;29;20243;-71
2024/01/14 07:48:43;;;;;;;20.93;11.83;;;;;2.70;100534.00;;;;4860660;29;20241;-72
2024/01/14 07:51:29;;;;;;;18.97;9.80;;;;;2.70;100532.00;;;;4856603;29;20764;-71
2024/01/14 07:54:16;;;;;;;18.47;10.20;;;;;2.70;100536.00;;;;4858637;29;20747;-71
2024/01/14 07:57:02;;;;;;;17.90;9.40;;;;;2.70;100526.00;;;;4860668;29;20243;-71
2024/01/14 07:59:50;;;;;;;31.20;10.63;;;;;2.80;100523.00;;;;4859359;29;20248;-71
2024/01/14 08:02:37;;;;;;;23.93;11.20;;;;;2.80;100520.00;;;;4861963;29;20245;-70
2024/01/14 08:05:23;;;;;;;20.20;9.67;;;;;2.70;100522.00;;;;4863706;29;20238;-69
2024/01/14 08:08:10;;;;;;;14.33;8.60;;;;;2.70;100521.00;;;;4853358;29;20716;-70
2024/01/14 08:10:56;;;;;;;19.17;9.33;;;;;2.70;100524.00;;;;4853081;29;20239;-71
2024/01/14 08:13:42;;;;;;;19.33;9.57;;;;;2.70;100522.00;;;;4858321;29;20816;-70
2024/01/14 08:16:30;;;;;;;15.63;8.47;;;;;2.60;100521.00;;;;4858517;29;20307;-70
2024/01/14 08:19:16;;;;;;;22.07;9.07;;;;;2.70;100514.00;;;;4862071;29;20270;-69
2024/01/14 08:22:02;;;;;;;23.83;9.87;;;;;2.70;100518.00;;;;4852673;29;20355;-70
2024/01/14 08:24:49;;;;;;;19.00;8.57;;;;;2.60;100511.00;;;;4864625;29;20234;-71
2024/01/14 08:27:35;;;;;;;22.13;8.30;;;;;2.60;100514.00;;;;4861658;29;20292;-70
2024/01/14 08:30:22;;;;;;;18.17;8.07;;;;;2.70;100510.00;;;;4863782;29;20226;-70
2024/01/14 08:33:09;;;;;;;23.80;9.60;;;;;2.70;100508.00;;;;4865718;29;20356;-71
2024/01/14 08:35:56;;;;;;;20.77;8.67;;;;;2.60;100509.00;;;;4858674;29;20232;-71
2024/01/14 08:38:43;;;;;;;19.60;8.80;;;;;2.60;100516.00;;;;4849780;29;20242;-72
2024/01/14 08:41:29;;;;;;;21.87;9.33;;;;;2.70;100516.00;;;;4866388;29;20724;-70
2024/01/14 08:44:16;;;;;;;34.33;9.00;;;;;2.60;100521.00;;;;4857546;29;20291;-69
2024/01/14 08:47:05;;;;;;;24.07;9.57;;;;;2.70;100516.00;;;;4859989;29;20289;-71
2024/01/14 08:49:52;;;;;;;22.67;8.53;;;;;2.60;100502.00;;;;4861845;29;20715;-71
2024/01/14 08:52:39;;;;;;;20.43;9.70;;;;;2.60;100502.00;;;;4863310;29;20271;-70
2024/01/14 08:55:26;;;;;;;18.33;9.77;;;;;2.60;100512.00;;;;4860451;29;20348;-71
2024/01/14 08:58:13;;;;;;;27.60;8.93;;;;;2.70;100508.00;;;;4850268;29;20235;-67
2024/01/14 09:00:59;;;;;;;21.27;9.57;;;;;2.70;100502.00;;;;4857989;29;20274;-70
2024/01/14 09:03:45;;;;;;;23.67;10.10;;;;;2.70;100492.00;;;;4860037;29;20308;-71
2024/01/14 09:06:32;;;;;;;21.50;9.40;;;;;2.60;100509.00;;;;4861524;29;20247;-70
2024/01/14 09:09:19;;;;;;;21.17;9.07;;;;;2.70;100508.00;;;;4850526;29;20234;-71
2024/01/14 09:12:05;;;;;;;19.80;9.67;;;;;2.60;100497.00;;;;4858246;29;21793;-70
2024/01/14 09:14:52;;;;;;;22.63;9.27;;;;;2.70;100496.00;;;;4856950;29;20766;-71
2024/01/14 09:17:38;;;;;;;20.37;9.67;;;;;2.60;100499.00;;;;4852761;29;20236;-71
2024/01/14 09:20:25;;;;;;;17.83;7.97;;;;;2.70;100488.00;;;;4868279;29;20235;-70
2024/01/14 09:23:12;;;;;;;24.07;8.83;;;;;2.70;100493.00;;;;4866403;29;20616;-71
2024/01/14 09:25:59;;;;;;;23.83;8.90;;;;;2.70;100493.00;;;;4860292;29;20508;-69
2024/01/14 09:28:45;;;;;;;21.53;8.37;;;;;2.60;100483.00;;;;4865707;29;20236;-70
2024/01/14 09:31:32;;;;;;;20.47;9.57;;;;;2.70;100480.00;;;;4862659;29;20725;-71
2024/01/14 09:34:18;;;;;;;19.93;8.87;;;;;2.60;100482.00;;;;4856297;29;20240;-71
2024/01/14 09:37:04;;;;;;;17.43;9.53;;;;;2.70;100474.00;;;;4855654;29;20231;-72
2024/01/14 09:39:52;;;;;;;17.60;10.50;;;;;2.70;100478.00;;;;4852168;29;20244;-68
2024/01/14 09:42:41;;;;;;;16.07;7.67;;;;;2.60;100474.00;;;;4867806;29;20305;-71
2024/01/14 09:45:28;;;;;;;17.70;7.90;;;;;2.60;100483.00;;;;4851952;29;20232;-70
2024/01/14 09:48:24;;;;;;;22.20;9.10;;;;;2.50;100484.00;;;;4864253;29;20314;-71
2024/01/14 09:51:11;;;;;;;18.90;7.97;;;;;2.60;100487.00;;;;4863305;29;20246;-70
2024/01/14 09:54:01;;;;;;;17.90;9.83;;;;;2.60;100483.00;;;;4857409;29;20660;-71
2024/01/14 09:56:52;;;;;;;18.37;8.43;;;;;2.70;100479.00;;;;4864500;29;20234;-71
2024/01/14 09:59:43;;;;;;;16.43;7.17;;;;;2.70;100484.00;;;;4861955;29;20280;-71
2024/01/14 10:02:29;;;;;;;18.03;9.07;;;;;2.60;100476.00;;;;4868990;29;20322;-70
2024/01/14 10:05:16;;;;;;;19.17;8.73;;;;;2.60;100479.00;;;;4857224;29;20240;-69
2024/01/14 10:08:03;;;;;;;20.40;9.23;;;;;2.60;100481.00;;;;4862312;29;20235;-71
2024/01/14 10:10:53;;;;;;;19.97;9.33;;;;;2.60;100479.00;;;;4850323;29;20771;-70
2024/01/14 10:13:44;;;;;;;16.93;8.87;;;;;2.60;100474.00;;;;4865208;29;20359;-71
2024/01/14 10:16:31;;;;;;;20.70;9.00;;;;;2.70;100471.00;;;;4866335;29;20253;-72
2024/01/14 10:19:37;;;;;;;14.47;8.10;;;;;2.70;100465.00;;;;4861820;29;20314;-71
2024/01/14 10:22:24;;;;;;;21.40;9.40;;;;;2.70;100465.00;;;;4869118;29;20611;-71
2024/01/14 10:25:10;;;;;;;19.13;7.73;;;;;2.70;100460.00;;;;4860230;29;20242;-71
2024/01/14 10:27:57;;;;;;;22.23;9.17;;;;;2.70;100457.00;;;;4857042;29;20332;-71
2024/01/14 10:30:45;;;;;;;18.83;9.23;;;;;2.70;100442.00;;;;4836452;29;20235;-72
2024/01/14 10:33:32;;;;;;;15.43;8.10;;;;;2.70;100450.00;;;;4864742;29;20245;-72
2024/01/14 10:36:19;;;;;;;17.60;8.70;;;;;2.70;100443.00;;;;4861078;29;20289;-72
2024/01/14 10:39:07;;;;;;;18.20;10.37;;;;;2.60;100440.00;;;;4856375;29;20236;-71
2024/01/14 10:41:54;;;;;;;18.50;7.03;;;;;2.70;100434.00;;;;4862343;29;20693;-72
2024/01/14 10:44:40;;;;;;;12.77;6.40;;;;;2.70;100428.00;;;;4859235;29;20246;-72
2024/01/14 10:47:30;;;;;;;22.07;9.60;;;;;2.70;100422.00;;;;4862218;29;20239;-70
2024/01/14 10:50:18;;;;;;;18.93;7.23;;;;;2.70;100413.00;;;;4862382;29;20239;-71
2024/01/14 10:53:10;;;;;;;20.50;8.33;;;;;2.70;100417.00;;;;4854978;29;20273;-71
2024/01/14 10:56:01;;;;;;;20.17;7.80;;;;;2.60;100415.00;;;;4850165;29;20669;-73
2024/01/14 10:58:53;;;;;;;14.70;8.67;;;;;2.80;100413.00;;;;4865425;29;20246;-70
2024/01/14 11:01:48;;;;;;;14.60;7.50;;;;;2.70;100405.00;;;;4862553;29;20334;-73
2024/01/14 11:04:37;;;;;;;54.97;18.23;;;;;2.80;100400.00;;;;4848276;29;20850;-72
2024/01/14 11:07:24;;;;;;;20.40;8.47;;;;;2.80;100395.00;;;;4849244;29;20227;-70
2024/01/14 11:10:12;;;;;;;18.53;7.27;;;;;2.70;100393.00;;;;4851425;29;20634;-71
2024/01/14 11:13:08;;;;;;;18.50;7.93;;;;;2.70;100388.00;;;;4849446;29;20232;-72
2024/01/14 11:16:06;;;;;;;23.53;8.90;;;;;2.70;100385.00;;;;4853574;29;20249;-70
2024/01/14 11:18:58;;;;;;;16.20;7.80;;;;;2.80;100379.00;;;;4858534;29;20243;-70
2024/01/14 11:21:52;;;;;;;13.87;7.20;;;;;2.80;100372.00;;;;4863345;29;20247;-71
2024/01/14 11:25:00;;;;;;;14.67;7.30;;;;;2.70;100371.00;;;;4859390;29;20231;-71
2024/01/14 11:27:46;;;;;;;17.27;8.07;;;;;2.70;100364.00;;;;4852167;29;20399;-73
2024/01/14 11:30:50;;;;;;;23.27;8.07;;;;;2.80;100365.00;;;;4846863;29;20820;-71
2024/01/14 11:33:40;;;;;;;9.93;6.07;;;;;2.80;100364.00;;;;4847167;29;20240;-71
2024/01/14 11:36:56;;;;;;;13.50;5.37;;;;;2.80;100350.00;;;;4855912;29;20233;-70
2024/01/14 11:39:43;;;;;;;16.73;5.27;;;;;2.80;100335.00;;;;4844187;29;20247;-71
2024/01/14 11:42:29;;;;;;;16.30;6.77;;;;;2.70;100335.00;;;;4851368;29;20373;-71
2024/01/14 11:45:34;;;;;;;14.13;7.70;;;;;2.80;100314.00;;;;4854174;29;20812;-70
2024/01/14 11:48:21;;;;;;;11.70;6.20;;;;;2.80;100316.00;;;;4849798;29;20326;-69
2024/01/14 11:51:07;;;;;;;13.47;6.37;;;;;2.70;100302.00;;;;4850272;29;20761;-68
2024/01/14 11:53:56;;;;;;;20.87;6.83;;;;;2.70;100301.00;;;;4846622;29;20732;-71
2024/01/14 11:56:42;;;;;;;13.87;5.87;;;;;2.70;100291.00;;;;4854111;29;20245;-71
2024/01/14 11:59:29;;;;;;;11.10;6.30;;;;;2.80;100290.00;;;;4852475;29;20241;-72
2024/01/14 12:02:27;;;;;;;13.63;7.00;;;;;2.80;100277.00;;;;4850181;29;20232;-71
2024/01/14 12:05:17;;;;;;;15.97;6.43;;;;;2.80;100274.00;;;;4859842;29;20359;-72
2024/01/14 12:08:04;;;;;;;12.43;6.53;;;;;2.70;100284.00;;;;4865358;29;20313;-72
2024/01/14 12:10:52;;;;;;;16.67;6.73;;;;;2.80;100289.00;;;;4864865;29;20362;-72
2024/01/14 12:13:38;;;;;;;13.10;5.83;;;;;2.70;100282.00;;;;4860555;29;20649;-71
2024/01/14 12:16:24;;;;;;;13.00;6.13;;;;;2.70;100271.00;;;;4858568;29;20308;-71
2024/01/14 12:19:18;;;;;;;20.80;6.57;;;;;2.70;100265.00;;;;4864181;29;20732;-72
2024/01/14 12:22:04;;;;;;;13.40;6.10;;;;;2.70;100264.00;;;;4862540;29;20238;-67
2024/01/14 12:24:51;;;;;;;14.10;6.60;;;;;2.70;100261.00;;;;4865747;29;20365;-71
2024/01/14 12:27:39;;;;;;;16.13;8.00;;;;;2.70;100262.00;;;;4861519;29;20237;-71
2024/01/14 12:30:31;;;;;;;17.50;6.10;;;;;2.70;100241.00;;;;4856141;29;20764;-71
2024/01/14 12:33:17;;;;;;;16.57;6.43;;;;;2.70;100232.00;;;;4854283;29;20234;-70
2024/01/14 12:36:04;;;;;;;21.27;8.20;;;;;2.60;100230.00;;;;4861507;29;20612;-73
2024/01/14 12:38:51;;;;;;;17.63;7.70;;;;;2.70;100219.00;;;;4856795;29;20299;-71
2024/01/14 12:41:37;;;;;;;18.03;6.50;;;;;2.80;100217.00;;;;4860093;29;20272;-72
2024/01/14 12:44:43;;;;;;;18.73;6.60;;;;;2.70;100220.00;;;;4853022;29;20246;-72
2024/01/14 12:47:30;;;;;;;16.13;7.67;;;;;2.80;100218.00;;;;4857150;29;20307;-70
2024/01/14 12:50:18;;;;;;;20.80;8.57;;;;;2.80;100212.00;;;;4857114;29;20274;-73
2024/01/14 12:53:11;;;;;;;15.73;7.40;;;;;2.70;100200.00;;;;4868386;29;20234;-71
2024/01/14 12:56:08;;;;;;;15.73;7.47;;;;;2.70;100194.00;;;;4856856;29;20778;-70
2024/01/14 12:58:55;;;;;;;23.67;8.17;;;;;2.60;100189.00;;;;4865742;29;20238;-69
2024/01/14 13:01:42;;;;;;;15.20;6.77;;;;;2.70;100192.00;;;;4866047;29;20430;-72
2024/01/14 13:04:29;;;;;;;14.63;7.00;;;;;2.70;100180.00;;;;4867751;29;20325;-70
2024/01/14 13:07:16;;;;;;;15.83;7.57;;;;;2.70;100186.00;;;;4867728;29;20226;-71
2024/01/14 13:10:02;;;;;;;12.17;6.23;;;;;2.60;100188.00;;;;4870038;29;20623;-70
2024/01/14 13:12:49;;;;;;;15.23;7.17;;;;;2.70;100183.00;;;;4860150;29;20246;-69
2024/01/14 13:15:35;;;;;;;14.63;6.83;;;;;2.70;100183.00;;;;4860396;29;20238;-70
2024/01/14 13:18:24;;;;;;;15.70;7.43;;;;;2.70;100179.00;;;;4863528;29;20234;-71
2024/01/14 13:21:11;;;;;;;13.70;7.60;;;;;2.70;100175.00;;;;4868703;29;20242;-71
2024/01/14 13:23:57;;;;;;;13.70;6.17;;;;;2.70;100163.00;;;;4869359;29;20904;-70
2024/01/14 13:26:55;;;;;;;11.47;5.63;;;;;2.70;100168.00;;;;4862044;29;20325;-71
2024/01/14 13:29:41;;;;;;;14.33;6.60;;;;;2.60;100159.00;;;;4861333;29;20819;-70
2024/01/14 13:32:28;;;;;;;16.00;7.97;;;;;2.60;100163.00;;;;4861299;29;20238;-68
2024/01/14 13:35:16;;;;;;;15.83;5.90;;;;;2.50;100153.00;;;;4855829;29;20233;-70
2024/01/14 13:38:02;;;;;;;13.77;6.87;;;;;2.60;100149.00;;;;4857275;29;20243;-69
2024/01/14 13:40:49;;;;;;;17.20;6.90;;;;;2.60;100145.00;;;;4856868;29;20247;-72
2024/01/14 13:43:35;;;;;;;14.63;6.53;;;;;2.70;100134.00;;;;4854721;29;20291;-69
2024/01/14 13:46:22;;;;;;;17.60;7.80;;;;;2.60;100130.00;;;;4850396;29;20234;-70